sensor_id;sensor_type;location;lat;lon;timestamp;P1;durP1;ratioP1;P2;durP2;ratioP2
20865;SDS011;10593;48.398;10.698;2022-12-18T00:01:05;20.43;;;16.47;;
20865;SDS011;10593;48.398;10.698;2022-12-18T00:03:40;20.93;;;16.20;;
20865;SDS011;10593;48.398;10.698;2022-12-18T00:06:06;23.77;;;17.40;;
20865;SDS011;10593;48.398;10.698;2022-12-18T00:08:32;24.00;;;18.10;;
20865;SDS011;10593;48.398;10.698;2022-12-18T00:11:03;23.73;;;17.90;;
20865;SDS011;10593;48.398;10.698;2022-12-18T00:13:31;23.17;;;17.23;;
20865;SDS011;10593;48.398;10.698;2022-12-18T00:16:03;25.67;;;18.03;;
20865;SDS011;10593;48.398;10.698;2022-12-18T00:18:33;26.70;;;18.93;;
20865;SDS011;10593;48.398;10.698;2022-12-18T00:20:59;25.20;;;17.77;;
20865;SDS011;10593;48.398;10.698;2022-12-18T00:23:28;24.30;;;17.83;;
20865;SDS011;10593;48.398;10.698;2022-12-18T00:25:55;25.70;;;17.73;;
20865;SDS011;10593;48.398;10.698;2022-12-18T00:28:24;25.43;;;18.70;;
20865;SDS011;10593;48.398;10.698;2022-12-18T00:30:50;23.90;;;18.17;;
20865;SDS011;10593;48.398;10.698;2022-12-18T00:33:24;26.13;;;18.10;;
20865;SDS011;10593;48.398;10.698;2022-12-18T00:35:50;27.40;;;19.10;;
20865;SDS011;10593;48.398;10.698;2022-12-18T00:38:15;28.23;;;19.53;;
20865;SDS011;10593;48.398;10.698;2022-12-18T00:40:41;24.37;;;19.17;;
20865;SDS011;10593;48.398;10.698;2022-12-18T00:43:07;25.67;;;18.83;;
20865;SDS011;10593;48.398;10.698;2022-12-18T00:45:34;28.80;;;19.07;;
20865;SDS011;10593;48.398;10.698;2022-12-18T00:47:59;28.57;;;19.20;;
20865;SDS011;10593;48.398;10.698;2022-12-18T00:50:25;28.77;;;20.30;;
20865;SDS011;10593;48.398;10.698;2022-12-18T00:52:51;27.00;;;18.77;;
20865;SDS011;10593;48.398;10.698;2022-12-18T00:55:17;28.70;;;19.17;;
20865;SDS011;10593;48.398;10.698;2022-12-18T00:57:43;29.67;;;20.37;;
20865;SDS011;10593;48.398;10.698;2022-12-18T01:00:12;30.73;;;19.37;;
20865;SDS011;10593;48.398;10.698;2022-12-18T01:02:40;28.07;;;19.60;;
20865;SDS011;10593;48.398;10.698;2022-12-18T01:05:06;29.73;;;18.77;;
20865;SDS011;10593;48.398;10.698;2022-12-18T01:07:35;31.50;;;20.17;;
20865;SDS011;10593;48.398;10.698;2022-12-18T01:10:00;31.10;;;20.90;;
20865;SDS011;10593;48.398;10.698;2022-12-18T01:12:26;28.93;;;19.60;;
20865;SDS011;10593;48.398;10.698;2022-12-18T01:14:52;28.97;;;19.30;;
20865;SDS011;10593;48.398;10.698;2022-12-18T01:17:17;29.30;;;19.80;;
20865;SDS011;10593;48.398;10.698;2022-12-18T01:19:43;25.40;;;18.33;;
20865;SDS011;10593;48.398;10.698;2022-12-18T01:22:09;28.30;;;20.13;;
20865;SDS011;10593;48.398;10.698;2022-12-18T01:24:34;23.97;;;18.03;;
20865;SDS011;10593;48.398;10.698;2022-12-18T01:27:00;24.53;;;18.40;;
20865;SDS011;10593;48.398;10.698;2022-12-18T01:29:26;26.03;;;16.53;;
20865;SDS011;10593;48.398;10.698;2022-12-18T01:31:54;24.37;;;18.17;;
20865;SDS011;10593;48.398;10.698;2022-12-18T01:34:21;23.77;;;18.10;;
20865;SDS011;10593;48.398;10.698;2022-12-18T01:36:48;22.03;;;17.10;;
20865;SDS011;10593;48.398;10.698;2022-12-18T01:39:14;22.20;;;16.10;;
20865;SDS011;10593;48.398;10.698;2022-12-18T01:41:40;18.67;;;14.93;;
20865;SDS011;10593;48.398;10.698;2022-12-18T01:50:11;18.00;;;14.00;;
20865;SDS011;10593;48.398;10.698;2022-12-18T01:52:43;18.40;;;14.07;;
20865;SDS011;10593;48.398;10.698;2022-12-18T01:55:25;18.50;;;14.00;;
20865;SDS011;10593;48.398;10.698;2022-12-18T01:57:56;18.60;;;14.07;;
20865;SDS011;10593;48.398;10.698;2022-12-18T02:00:25;18.93;;;14.47;;
20865;SDS011;10593;48.398;10.698;2022-12-18T02:02:52;18.10;;;14.17;;
20865;SDS011;10593;48.398;10.698;2022-12-18T02:05:22;19.70;;;14.37;;
20865;SDS011;10593;48.398;10.698;2022-12-18T02:08:20;15.80;;;13.03;;
20865;SDS011;10593;48.398;10.698;2022-12-18T02:16:45;17.80;;;13.77;;
20865;SDS011;10593;48.398;10.698;2022-12-18T02:22:36;17.27;;;14.13;;
20865;SDS011;10593;48.398;10.698;2022-12-18T02:28:12;18.50;;;14.33;;
20865;SDS011;10593;48.398;10.698;2022-12-18T02:30:41;18.63;;;14.67;;
20865;SDS011;10593;48.398;10.698;2022-12-18T02:33:10;22.10;;;15.97;;
20865;SDS011;10593;48.398;10.698;2022-12-18T02:35:39;20.30;;;15.17;;
20865;SDS011;10593;48.398;10.698;2022-12-18T02:38:08;20.03;;;15.47;;
20865;SDS011;10593;48.398;10.698;2022-12-18T02:40:34;24.20;;;16.90;;
20865;SDS011;10593;48.398;10.698;2022-12-18T02:43:13;20.90;;;15.83;;
20865;SDS011;10593;48.398;10.698;2022-12-18T02:45:47;21.70;;;15.27;;
20865;SDS011;10593;48.398;10.698;2022-12-18T02:48:19;24.07;;;16.83;;
20865;SDS011;10593;48.398;10.698;2022-12-18T02:53:43;20.97;;;16.00;;
20865;SDS011;10593;48.398;10.698;2022-12-18T02:56:20;20.70;;;14.63;;
20865;SDS011;10593;48.398;10.698;2022-12-18T02:59:08;26.00;;;17.10;;
20865;SDS011;10593;48.398;10.698;2022-12-18T03:01:55;20.10;;;15.07;;
20865;SDS011;10593;48.398;10.698;2022-12-18T03:05:07;22.40;;;15.33;;
20865;SDS011;10593;48.398;10.698;2022-12-18T03:08:08;20.73;;;14.53;;
20865;SDS011;10593;48.398;10.698;2022-12-18T03:10:45;18.17;;;14.17;;
20865;SDS011;10593;48.398;10.698;2022-12-18T03:13:26;18.73;;;13.50;;
20865;SDS011;10593;48.398;10.698;2022-12-18T03:15:58;20.93;;;13.77;;
20865;SDS011;10593;48.398;10.698;2022-12-18T03:18:30;20.43;;;15.37;;
20865;SDS011;10593;48.398;10.698;2022-12-18T03:21:10;19.90;;;14.53;;
20865;SDS011;10593;48.398;10.698;2022-12-18T03:23:42;18.77;;;14.53;;
20865;SDS011;10593;48.398;10.698;2022-12-18T03:26:16;17.07;;;13.40;;
20865;SDS011;10593;48.398;10.698;2022-12-18T03:28:50;20.30;;;13.83;;
20865;SDS011;10593;48.398;10.698;2022-12-18T03:31:22;19.13;;;14.77;;
20865;SDS011;10593;48.398;10.698;2022-12-18T03:33:52;21.30;;;14.70;;
20865;SDS011;10593;48.398;10.698;2022-12-18T03:36:30;20.23;;;14.60;;
20865;SDS011;10593;48.398;10.698;2022-12-18T03:38:56;17.07;;;14.10;;
20865;SDS011;10593;48.398;10.698;2022-12-18T03:41:32;18.57;;;13.53;;
20865;SDS011;10593;48.398;10.698;2022-12-18T03:47:16;18.10;;;12.87;;
20865;SDS011;10593;48.398;10.698;2022-12-18T03:53:06;17.70;;;13.40;;
20865;SDS011;10593;48.398;10.698;2022-12-18T03:55:49;19.33;;;14.13;;
20865;SDS011;10593;48.398;10.698;2022-12-18T03:58:17;17.20;;;13.30;;
20865;SDS011;10593;48.398;10.698;2022-12-18T04:00:49;19.40;;;13.27;;
20865;SDS011;10593;48.398;10.698;2022-12-18T04:03:20;18.00;;;12.97;;
20865;SDS011;10593;48.398;10.698;2022-12-18T04:05:48;18.30;;;13.10;;
20865;SDS011;10593;48.398;10.698;2022-12-18T04:08:17;18.90;;;13.50;;
20865;SDS011;10593;48.398;10.698;2022-12-18T04:10:44;18.00;;;13.27;;
20865;SDS011;10593;48.398;10.698;2022-12-18T04:13:10;17.50;;;13.13;;
20865;SDS011;10593;48.398;10.698;2022-12-18T04:15:36;16.63;;;12.43;;
20865;SDS011;10593;48.398;10.698;2022-12-18T04:18:03;18.83;;;13.53;;
20865;SDS011;10593;48.398;10.698;2022-12-18T04:20:29;19.30;;;14.17;;
20865;SDS011;10593;48.398;10.698;2022-12-18T04:22:55;19.83;;;13.77;;
20865;SDS011;10593;48.398;10.698;2022-12-18T04:25:20;17.43;;;12.87;;
20865;SDS011;10593;48.398;10.698;2022-12-18T04:27:46;19.70;;;11.97;;
20865;SDS011;10593;48.398;10.698;2022-12-18T04:30:12;17.50;;;12.00;;
20865;SDS011;10593;48.398;10.698;2022-12-18T04:32:37;17.67;;;13.33;;
20865;SDS011;10593;48.398;10.698;2022-12-18T04:35:03;17.10;;;12.03;;
20865;SDS011;10593;48.398;10.698;2022-12-18T04:37:33;16.80;;;12.90;;
20865;SDS011;10593;48.398;10.698;2022-12-18T04:39:59;16.10;;;11.73;;
20865;SDS011;10593;48.398;10.698;2022-12-18T04:42:25;16.23;;;11.40;;
20865;SDS011;10593;48.398;10.698;2022-12-18T04:44:50;15.27;;;12.03;;
20865;SDS011;10593;48.398;10.698;2022-12-18T04:47:16;17.43;;;12.23;;
20865;SDS011;10593;48.398;10.698;2022-12-18T04:49:41;16.63;;;12.00;;
20865;SDS011;10593;48.398;10.698;2022-12-18T04:52:07;16.27;;;11.23;;
20865;SDS011;10593;48.398;10.698;2022-12-18T04:54:33;14.20;;;11.47;;
20865;SDS011;10593;48.398;10.698;2022-12-18T04:56:58;15.63;;;11.33;;
20865;SDS011;10593;48.398;10.698;2022-12-18T04:59:24;15.37;;;11.33;;
20865;SDS011;10593;48.398;10.698;2022-12-18T05:01:50;16.23;;;11.83;;
20865;SDS011;10593;48.398;10.698;2022-12-18T05:04:15;15.93;;;11.60;;
20865;SDS011;10593;48.398;10.698;2022-12-18T05:06:41;16.07;;;11.43;;
20865;SDS011;10593;48.398;10.698;2022-12-18T05:09:07;16.60;;;11.37;;
20865;SDS011;10593;48.398;10.698;2022-12-18T05:11:32;16.40;;;12.23;;
20865;SDS011;10593;48.398;10.698;2022-12-18T05:13:58;16.47;;;12.10;;
20865;SDS011;10593;48.398;10.698;2022-12-18T05:16:24;19.37;;;12.93;;
20865;SDS011;10593;48.398;10.698;2022-12-18T05:18:49;16.60;;;12.47;;
20865;SDS011;10593;48.398;10.698;2022-12-18T05:21:15;16.80;;;12.20;;
20865;SDS011;10593;48.398;10.698;2022-12-18T05:23:41;16.47;;;11.70;;
20865;SDS011;10593;48.398;10.698;2022-12-18T05:26:06;17.10;;;12.07;;
20865;SDS011;10593;48.398;10.698;2022-12-18T05:28:33;16.87;;;12.20;;
20865;SDS011;10593;48.398;10.698;2022-12-18T05:31:01;18.03;;;11.67;;
20865;SDS011;10593;48.398;10.698;2022-12-18T05:33:29;17.53;;;12.13;;
20865;SDS011;10593;48.398;10.698;2022-12-18T05:35:58;14.50;;;11.20;;
20865;SDS011;10593;48.398;10.698;2022-12-18T05:38:26;16.70;;;12.13;;
20865;SDS011;10593;48.398;10.698;2022-12-18T05:40:54;17.70;;;12.37;;
20865;SDS011;10593;48.398;10.698;2022-12-18T05:43:21;18.43;;;12.83;;
20865;SDS011;10593;48.398;10.698;2022-12-18T05:45:50;15.57;;;10.87;;
20865;SDS011;10593;48.398;10.698;2022-12-18T05:48:18;16.83;;;11.77;;
20865;SDS011;10593;48.398;10.698;2022-12-18T05:50:45;20.43;;;13.07;;
20865;SDS011;10593;48.398;10.698;2022-12-18T05:53:17;14.33;;;11.37;;
20865;SDS011;10593;48.398;10.698;2022-12-18T05:55:45;17.00;;;12.33;;
20865;SDS011;10593;48.398;10.698;2022-12-18T05:58:12;18.57;;;12.27;;
20865;SDS011;10593;48.398;10.698;2022-12-18T06:00:40;17.97;;;12.97;;
20865;SDS011;10593;48.398;10.698;2022-12-18T06:03:09;17.43;;;12.73;;
20865;SDS011;10593;48.398;10.698;2022-12-18T06:05:37;19.67;;;13.10;;
20865;SDS011;10593;48.398;10.698;2022-12-18T06:08:06;18.60;;;12.93;;
20865;SDS011;10593;48.398;10.698;2022-12-18T06:10:32;15.67;;;12.20;;
20865;SDS011;10593;48.398;10.698;2022-12-18T06:12:58;17.33;;;12.60;;
20865;SDS011;10593;48.398;10.698;2022-12-18T06:15:24;18.67;;;12.93;;
20865;SDS011;10593;48.398;10.698;2022-12-18T06:17:49;19.50;;;13.33;;
20865;SDS011;10593;48.398;10.698;2022-12-18T06:20:15;16.50;;;12.20;;
20865;SDS011;10593;48.398;10.698;2022-12-18T06:22:41;18.23;;;12.43;;
20865;SDS011;10593;48.398;10.698;2022-12-18T06:25:07;18.30;;;12.33;;
20865;SDS011;10593;48.398;10.698;2022-12-18T06:27:33;17.90;;;12.53;;
20865;SDS011;10593;48.398;10.698;2022-12-18T06:29:59;17.60;;;11.80;;
20865;SDS011;10593;48.398;10.698;2022-12-18T06:32:25;17.83;;;12.73;;
20865;SDS011;10593;48.398;10.698;2022-12-18T06:34:51;20.33;;;13.10;;
20865;SDS011;10593;48.398;10.698;2022-12-18T06:37:18;17.13;;;12.50;;
20865;SDS011;10593;48.398;10.698;2022-12-18T06:39:44;19.57;;;12.40;;
20865;SDS011;10593;48.398;10.698;2022-12-18T06:42:10;18.03;;;12.70;;
20865;SDS011;10593;48.398;10.698;2022-12-18T06:44:35;17.77;;;13.60;;
20865;SDS011;10593;48.398;10.698;2022-12-18T06:47:01;18.50;;;12.37;;
20865;SDS011;10593;48.398;10.698;2022-12-18T06:49:27;19.83;;;13.60;;
20865;SDS011;10593;48.398;10.698;2022-12-18T06:51:52;17.57;;;12.63;;
20865;SDS011;10593;48.398;10.698;2022-12-18T06:54:18;20.20;;;13.23;;
20865;SDS011;10593;48.398;10.698;2022-12-18T06:56:47;19.33;;;13.13;;
20865;SDS011;10593;48.398;10.698;2022-12-18T06:59:13;17.10;;;12.77;;
20865;SDS011;10593;48.398;10.698;2022-12-18T07:01:39;17.53;;;13.63;;
20865;SDS011;10593;48.398;10.698;2022-12-18T07:04:05;20.90;;;14.33;;
20865;SDS011;10593;48.398;10.698;2022-12-18T07:06:32;17.80;;;12.87;;
20865;SDS011;10593;48.398;10.698;2022-12-18T07:08:58;17.60;;;12.53;;
20865;SDS011;10593;48.398;10.698;2022-12-18T07:11:24;18.63;;;12.80;;
20865;SDS011;10593;48.398;10.698;2022-12-18T07:13:49;21.23;;;13.93;;
20865;SDS011;10593;48.398;10.698;2022-12-18T07:16:18;19.17;;;13.33;;
20865;SDS011;10593;48.398;10.698;2022-12-18T07:18:45;19.23;;;13.37;;
20865;SDS011;10593;48.398;10.698;2022-12-18T07:21:14;20.27;;;14.10;;
20865;SDS011;10593;48.398;10.698;2022-12-18T07:23:43;17.90;;;12.53;;
20865;SDS011;10593;48.398;10.698;2022-12-18T07:26:11;19.83;;;13.83;;
20865;SDS011;10593;48.398;10.698;2022-12-18T07:28:39;18.13;;;12.63;;
20865;SDS011;10593;48.398;10.698;2022-12-18T07:31:06;18.13;;;12.63;;
20865;SDS011;10593;48.398;10.698;2022-12-18T07:33:36;18.63;;;12.97;;
20865;SDS011;10593;48.398;10.698;2022-12-18T07:36:02;16.53;;;12.90;;
20865;SDS011;10593;48.398;10.698;2022-12-18T07:38:30;17.37;;;13.00;;
20865;SDS011;10593;48.398;10.698;2022-12-18T07:41:04;16.47;;;12.37;;
20865;SDS011;10593;48.398;10.698;2022-12-18T07:43:37;16.10;;;12.20;;
20865;SDS011;10593;48.398;10.698;2022-12-18T07:46:04;18.37;;;12.67;;
20865;SDS011;10593;48.398;10.698;2022-12-18T07:48:31;17.33;;;12.60;;
20865;SDS011;10593;48.398;10.698;2022-12-18T07:51:00;15.83;;;12.07;;
20865;SDS011;10593;48.398;10.698;2022-12-18T07:53:31;21.73;;;14.20;;
20865;SDS011;10593;48.398;10.698;2022-12-18T07:55:59;15.50;;;12.10;;
20865;SDS011;10593;48.398;10.698;2022-12-18T07:58:29;17.07;;;12.50;;
20865;SDS011;10593;48.398;10.698;2022-12-18T08:01:02;20.93;;;13.83;;
20865;SDS011;10593;48.398;10.698;2022-12-18T08:03:32;20.87;;;14.30;;
20865;SDS011;10593;48.398;10.698;2022-12-18T08:05:59;17.57;;;12.70;;
20865;SDS011;10593;48.398;10.698;2022-12-18T08:08:26;19.50;;;14.10;;
20865;SDS011;10593;48.398;10.698;2022-12-18T08:10:53;19.20;;;14.07;;
20865;SDS011;10593;48.398;10.698;2022-12-18T08:13:18;17.37;;;12.50;;
20865;SDS011;10593;48.398;10.698;2022-12-18T08:15:44;16.50;;;12.27;;
20865;SDS011;10593;48.398;10.698;2022-12-18T08:18:10;17.13;;;12.47;;
20865;SDS011;10593;48.398;10.698;2022-12-18T08:20:35;16.50;;;12.70;;
20865;SDS011;10593;48.398;10.698;2022-12-18T08:23:01;17.60;;;12.50;;
20865;SDS011;10593;48.398;10.698;2022-12-18T08:25:27;16.37;;;12.40;;
20865;SDS011;10593;48.398;10.698;2022-12-18T08:27:52;19.43;;;13.87;;
20865;SDS011;10593;48.398;10.698;2022-12-18T08:30:18;16.73;;;12.67;;
20865;SDS011;10593;48.398;10.698;2022-12-18T08:32:44;16.60;;;12.70;;
20865;SDS011;10593;48.398;10.698;2022-12-18T08:35:10;26.63;;;17.73;;
20865;SDS011;10593;48.398;10.698;2022-12-18T08:37:37;30.30;;;22.23;;
20865;SDS011;10593;48.398;10.698;2022-12-18T08:40:03;44.40;;;32.93;;
20865;SDS011;10593;48.398;10.698;2022-12-18T08:42:29;26.03;;;18.50;;
20865;SDS011;10593;48.398;10.698;2022-12-18T08:45:13;19.57;;;15.67;;
20865;SDS011;10593;48.398;10.698;2022-12-18T08:47:39;20.37;;;14.57;;
20865;SDS011;10593;48.398;10.698;2022-12-18T08:50:04;17.23;;;13.87;;
20865;SDS011;10593;48.398;10.698;2022-12-18T08:52:31;19.67;;;14.37;;
20865;SDS011;10593;48.398;10.698;2022-12-18T08:54:57;16.70;;;12.73;;
20865;SDS011;10593;48.398;10.698;2022-12-18T08:57:23;20.10;;;14.03;;
20865;SDS011;10593;48.398;10.698;2022-12-18T08:59:48;18.63;;;13.37;;
20865;SDS011;10593;48.398;10.698;2022-12-18T09:02:14;17.93;;;13.13;;
20865;SDS011;10593;48.398;10.698;2022-12-18T09:04:40;20.00;;;14.10;;
20865;SDS011;10593;48.398;10.698;2022-12-18T09:07:06;17.63;;;13.20;;
20865;SDS011;10593;48.398;10.698;2022-12-18T09:09:32;20.97;;;15.13;;
20865;SDS011;10593;48.398;10.698;2022-12-18T09:11:57;21.97;;;14.63;;
20865;SDS011;10593;48.398;10.698;2022-12-18T09:14:23;22.27;;;14.37;;
20865;SDS011;10593;48.398;10.698;2022-12-18T09:16:49;18.57;;;13.93;;
20865;SDS011;10593;48.398;10.698;2022-12-18T09:19:14;16.43;;;12.30;;
20865;SDS011;10593;48.398;10.698;2022-12-18T09:21:40;17.07;;;12.30;;
20865;SDS011;10593;48.398;10.698;2022-12-18T09:24:06;17.60;;;12.13;;
20865;SDS011;10593;48.398;10.698;2022-12-18T09:26:37;20.60;;;15.17;;
20865;SDS011;10593;48.398;10.698;2022-12-18T09:29:03;19.37;;;13.63;;
20865;SDS011;10593;48.398;10.698;2022-12-18T09:31:29;18.67;;;13.90;;
20865;SDS011;10593;48.398;10.698;2022-12-18T09:33:55;17.70;;;13.63;;
20865;SDS011;10593;48.398;10.698;2022-12-18T09:36:21;18.27;;;12.73;;
20865;SDS011;10593;48.398;10.698;2022-12-18T09:38:47;19.17;;;12.97;;
20865;SDS011;10593;48.398;10.698;2022-12-18T09:41:47;17.77;;;13.20;;
20865;SDS011;10593;48.398;10.698;2022-12-18T09:44:22;16.13;;;12.53;;
20865;SDS011;10593;48.398;10.698;2022-12-18T09:49:59;17.20;;;12.43;;
20865;SDS011;10593;48.398;10.698;2022-12-18T09:52:35;16.47;;;11.93;;
20865;SDS011;10593;48.398;10.698;2022-12-18T09:55:16;18.77;;;13.60;;
20865;SDS011;10593;48.398;10.698;2022-12-18T10:00:51;15.87;;;12.40;;
20865;SDS011;10593;48.398;10.698;2022-12-18T10:03:18;17.30;;;13.07;;
20865;SDS011;10593;48.398;10.698;2022-12-18T10:08:57;17.87;;;13.57;;
20865;SDS011;10593;48.398;10.698;2022-12-18T10:15:05;15.07;;;12.43;;
20865;SDS011;10593;48.398;10.698;2022-12-18T10:20:56;16.63;;;11.87;;
20865;SDS011;10593;48.398;10.698;2022-12-18T10:26:09;16.80;;;12.63;;
20865;SDS011;10593;48.398;10.698;2022-12-18T10:28:37;16.27;;;12.23;;
20865;SDS011;10593;48.398;10.698;2022-12-18T10:31:06;16.40;;;12.10;;
20865;SDS011;10593;48.398;10.698;2022-12-18T10:33:40;16.70;;;12.13;;
20865;SDS011;10593;48.398;10.698;2022-12-18T10:36:06;16.77;;;12.17;;
20865;SDS011;10593;48.398;10.698;2022-12-18T10:38:32;13.63;;;11.47;;
20865;SDS011;10593;48.398;10.698;2022-12-18T10:43:43;16.70;;;12.97;;
20865;SDS011;10593;48.398;10.698;2022-12-18T10:51:34;16.53;;;11.87;;
20865;SDS011;10593;48.398;10.698;2022-12-18T10:54:06;16.77;;;12.27;;
20865;SDS011;10593;48.398;10.698;2022-12-18T10:56:43;15.77;;;12.30;;
20865;SDS011;10593;48.398;10.698;2022-12-18T10:59:09;16.80;;;13.03;;
20865;SDS011;10593;48.398;10.698;2022-12-18T11:01:49;18.53;;;12.67;;
20865;SDS011;10593;48.398;10.698;2022-12-18T11:04:26;15.47;;;11.93;;
20865;SDS011;10593;48.398;10.698;2022-12-18T11:09:30;16.73;;;12.43;;
20865;SDS011;10593;48.398;10.698;2022-12-18T11:12:02;18.57;;;12.23;;
20865;SDS011;10593;48.398;10.698;2022-12-18T11:14:49;17.03;;;12.83;;
20865;SDS011;10593;48.398;10.698;2022-12-18T11:17:22;18.33;;;13.90;;
20865;SDS011;10593;48.398;10.698;2022-12-18T11:19:56;19.37;;;13.47;;
20865;SDS011;10593;48.398;10.698;2022-12-18T11:27:25;19.63;;;14.73;;
20865;SDS011;10593;48.398;10.698;2022-12-18T11:29:52;18.37;;;13.53;;
20865;SDS011;10593;48.398;10.698;2022-12-18T11:32:43;16.40;;;12.67;;
20865;SDS011;10593;48.398;10.698;2022-12-18T11:35:41;16.90;;;13.03;;
20865;SDS011;10593;48.398;10.698;2022-12-18T11:38:27;17.53;;;13.10;;
20865;SDS011;10593;48.398;10.698;2022-12-18T11:41:07;17.63;;;13.57;;
20865;SDS011;10593;48.398;10.698;2022-12-18T11:43:54;17.73;;;13.23;;
20865;SDS011;10593;48.398;10.698;2022-12-18T11:46:27;19.87;;;14.07;;
20865;SDS011;10593;48.398;10.698;2022-12-18T11:49:03;18.27;;;14.30;;
20865;SDS011;10593;48.398;10.698;2022-12-18T11:52:04;15.07;;;12.37;;
20865;SDS011;10593;48.398;10.698;2022-12-18T11:54:46;17.20;;;12.77;;
20865;SDS011;10593;48.398;10.698;2022-12-18T11:57:25;19.27;;;13.77;;
20865;SDS011;10593;48.398;10.698;2022-12-18T12:00:17;18.27;;;13.43;;
20865;SDS011;10593;48.398;10.698;2022-12-18T12:11:33;16.13;;;12.53;;
20865;SDS011;10593;48.398;10.698;2022-12-18T12:17:08;18.10;;;13.63;;
20865;SDS011;10593;48.398;10.698;2022-12-18T12:19:59;16.80;;;12.77;;
20865;SDS011;10593;48.398;10.698;2022-12-18T12:26:00;17.37;;;12.13;;
20865;SDS011;10593;48.398;10.698;2022-12-18T12:28:45;15.13;;;12.00;;
20865;SDS011;10593;48.398;10.698;2022-12-18T12:31:37;16.93;;;13.70;;
20865;SDS011;10593;48.398;10.698;2022-12-18T12:40:51;16.30;;;13.20;;
20865;SDS011;10593;48.398;10.698;2022-12-18T12:43:28;15.57;;;11.53;;
20865;SDS011;10593;48.398;10.698;2022-12-18T12:46:10;16.27;;;12.80;;
20865;SDS011;10593;48.398;10.698;2022-12-18T12:48:47;15.50;;;11.97;;
20865;SDS011;10593;48.398;10.698;2022-12-18T12:51:25;16.00;;;13.23;;
20865;SDS011;10593;48.398;10.698;2022-12-18T12:53:59;16.87;;;13.03;;
20865;SDS011;10593;48.398;10.698;2022-12-18T12:56:36;17.87;;;13.83;;
20865;SDS011;10593;48.398;10.698;2022-12-18T13:02:16;17.40;;;13.80;;
20865;SDS011;10593;48.398;10.698;2022-12-18T13:04:50;17.20;;;13.07;;
20865;SDS011;10593;48.398;10.698;2022-12-18T13:08:11;18.13;;;12.37;;
20865;SDS011;10593;48.398;10.698;2022-12-18T13:10:50;17.00;;;13.30;;
20865;SDS011;10593;48.398;10.698;2022-12-18T13:13:51;17.80;;;13.77;;
20865;SDS011;10593;48.398;10.698;2022-12-18T13:16:21;17.87;;;13.43;;
20865;SDS011;10593;48.398;10.698;2022-12-18T13:18:50;18.53;;;13.57;;
20865;SDS011;10593;48.398;10.698;2022-12-18T13:21:24;16.03;;;12.37;;
20865;SDS011;10593;48.398;10.698;2022-12-18T13:23:55;19.53;;;14.67;;
20865;SDS011;10593;48.398;10.698;2022-12-18T13:26:33;21.80;;;14.03;;
20865;SDS011;10593;48.398;10.698;2022-12-18T13:28:59;16.87;;;13.40;;
20865;SDS011;10593;48.398;10.698;2022-12-18T13:36:44;19.00;;;14.40;;
20865;SDS011;10593;48.398;10.698;2022-12-18T13:41:43;20.07;;;15.30;;
20865;SDS011;10593;48.398;10.698;2022-12-18T13:47:01;17.50;;;14.10;;
20865;SDS011;10593;48.398;10.698;2022-12-18T13:49:39;18.60;;;14.20;;
20865;SDS011;10593;48.398;10.698;2022-12-18T13:52:19;21.30;;;14.40;;
20865;SDS011;10593;48.398;10.698;2022-12-18T13:54:53;17.47;;;14.03;;
20865;SDS011;10593;48.398;10.698;2022-12-18T13:57:29;16.77;;;13.47;;
20865;SDS011;10593;48.398;10.698;2022-12-18T13:59:58;16.87;;;13.37;;
20865;SDS011;10593;48.398;10.698;2022-12-18T14:02:44;17.30;;;13.20;;
20865;SDS011;10593;48.398;10.698;2022-12-18T14:08:11;18.90;;;13.67;;
20865;SDS011;10593;48.398;10.698;2022-12-18T14:10:46;17.27;;;12.80;;
20865;SDS011;10593;48.398;10.698;2022-12-18T14:13:27;16.80;;;12.63;;
20865;SDS011;10593;48.398;10.698;2022-12-18T14:15:57;16.90;;;13.40;;
20865;SDS011;10593;48.398;10.698;2022-12-18T14:18:29;17.40;;;13.30;;
20865;SDS011;10593;48.398;10.698;2022-12-18T14:20:59;19.07;;;14.10;;
20865;SDS011;10593;48.398;10.698;2022-12-18T14:23:35;16.97;;;13.23;;
20865;SDS011;10593;48.398;10.698;2022-12-18T14:26:02;17.83;;;14.30;;
20865;SDS011;10593;48.398;10.698;2022-12-18T14:28:54;17.83;;;12.93;;
20865;SDS011;10593;48.398;10.698;2022-12-18T14:31:22;14.77;;;12.40;;
20865;SDS011;10593;48.398;10.698;2022-12-18T14:33:54;17.87;;;13.50;;
20865;SDS011;10593;48.398;10.698;2022-12-18T14:36:21;18.27;;;13.67;;
20865;SDS011;10593;48.398;10.698;2022-12-18T14:38:54;21.83;;;15.23;;
20865;SDS011;10593;48.398;10.698;2022-12-18T14:41:23;25.37;;;18.20;;
20865;SDS011;10593;48.398;10.698;2022-12-18T14:43:51;25.90;;;18.80;;
20865;SDS011;10593;48.398;10.698;2022-12-18T14:49:18;24.90;;;18.33;;
20865;SDS011;10593;48.398;10.698;2022-12-18T14:51:55;26.37;;;19.50;;
20865;SDS011;10593;48.398;10.698;2022-12-18T14:54:24;29.53;;;19.60;;
20865;SDS011;10593;48.398;10.698;2022-12-18T14:57:35;27.77;;;19.67;;
20865;SDS011;10593;48.398;10.698;2022-12-18T15:00:03;25.30;;;17.87;;
20865;SDS011;10593;48.398;10.698;2022-12-18T15:02:40;21.53;;;15.93;;
20865;SDS011;10593;48.398;10.698;2022-12-18T15:05:27;23.10;;;16.23;;
20865;SDS011;10593;48.398;10.698;2022-12-18T15:07:54;22.40;;;15.60;;
20865;SDS011;10593;48.398;10.698;2022-12-18T15:10:24;23.83;;;16.53;;
20865;SDS011;10593;48.398;10.698;2022-12-18T15:18:11;21.77;;;14.73;;
20865;SDS011;10593;48.398;10.698;2022-12-18T15:20:49;19.27;;;13.90;;
20865;SDS011;10593;48.398;10.698;2022-12-18T15:23:21;18.57;;;13.23;;
20865;SDS011;10593;48.398;10.698;2022-12-18T15:26:04;20.30;;;14.73;;
20865;SDS011;10593;48.398;10.698;2022-12-18T15:28:34;21.77;;;15.30;;
20865;SDS011;10593;48.398;10.698;2022-12-18T15:36:19;17.90;;;13.53;;
20865;SDS011;10593;48.398;10.698;2022-12-18T15:38:48;16.77;;;13.90;;
20865;SDS011;10593;48.398;10.698;2022-12-18T15:41:16;18.47;;;13.83;;
20865;SDS011;10593;48.398;10.698;2022-12-18T15:43:45;17.17;;;13.10;;
20865;SDS011;10593;48.398;10.698;2022-12-18T15:46:13;20.13;;;14.27;;
20865;SDS011;10593;48.398;10.698;2022-12-18T15:48:49;18.60;;;13.63;;
20865;SDS011;10593;48.398;10.698;2022-12-18T15:51:21;19.10;;;14.00;;
20865;SDS011;10593;48.398;10.698;2022-12-18T15:53:56;19.10;;;13.13;;
20865;SDS011;10593;48.398;10.698;2022-12-18T15:56:25;18.43;;;14.23;;
20865;SDS011;10593;48.398;10.698;2022-12-18T15:59:12;18.57;;;13.50;;
20865;SDS011;10593;48.398;10.698;2022-12-18T16:01:41;19.67;;;14.47;;
20865;SDS011;10593;48.398;10.698;2022-12-18T16:04:13;19.60;;;14.30;;
20865;SDS011;10593;48.398;10.698;2022-12-18T16:06:41;20.77;;;15.03;;
20865;SDS011;10593;48.398;10.698;2022-12-18T16:09:07;21.50;;;15.37;;
20865;SDS011;10593;48.398;10.698;2022-12-18T16:11:34;21.30;;;14.87;;
20865;SDS011;10593;48.398;10.698;2022-12-18T16:16:54;21.70;;;15.20;;
20865;SDS011;10593;48.398;10.698;2022-12-18T16:19:25;19.13;;;14.67;;
20865;SDS011;10593;48.398;10.698;2022-12-18T16:21:53;20.57;;;14.70;;
20865;SDS011;10593;48.398;10.698;2022-12-18T16:24:23;22.17;;;15.73;;
20865;SDS011;10593;48.398;10.698;2022-12-18T16:26:55;22.00;;;15.50;;